Terminal Aerodrome Forecast
Issued by NWS

Home | Current Version | Previous Version | Text Only | Print | Product List | Glossary On
Versions: 1 2 3 4 5 6 7 8 9 10 11 12 13 14 15 16 17 18 19 20 21 22 23
781
FTUS43 KLSX 262320
TAFCPS
TAF
KCPS 262320Z 2700/2724 19005KT P6SM VCTS BKN035CB
     FM270200 00000KT P6SM SCT040
     FM270900 00000KT 3SM BR SKC
     FM271500 VRB03KT P6SM SCT030=

USA.gov is the U.S. government's official web portal to all federal, state and local government web resources and services.